createdAt,value
2019-02-28T00:04:51.895Z,13.13
2019-02-28T00:07:21.300Z,12.60
2019-02-28T00:18:39.121Z,12.87
2019-02-28T00:21:27.186Z,11.97
2019-02-28T00:24:15.536Z,14.90
2019-02-28T00:33:20.426Z,13.47
2019-02-28T00:36:19.844Z,10.23
2019-02-28T00:42:24.152Z,12.10
2019-02-28T00:45:12.734Z,15.53
2019-02-28T00:48:04.702Z,13.70
2019-02-28T00:56:32.312Z,13.70
2019-02-28T00:59:13.230Z,16.60
2019-02-28T01:01:43.042Z,11.70
2019-02-28T01:04:12.864Z,12.30
2019-02-28T01:07:01.142Z,11.20
2019-02-28T01:09:49.316Z,12.40
2019-02-28T01:12:19.178Z,11.63
2019-02-28T01:14:49.190Z,9.47
2019-02-28T01:17:37.289Z,12.83
2019-02-28T01:20:25.465Z,12.40
2019-02-28T01:23:06.325Z,13.97
2019-02-28T01:25:47.301Z,10.87
2019-02-28T01:28:16.348Z,12.40
2019-02-28T01:37:06.571Z,10.03
2019-02-28T01:39:47.879Z,11.47
2019-02-28T01:42:28.890Z,12.10
2019-02-28T01:45:11.017Z,12.83
2019-02-28T01:47:52.435Z,9.90
2019-02-28T01:50:33.550Z,12.07
2019-02-28T01:53:18.678Z,15.63
2019-02-28T01:55:57.037Z,10.10
2019-02-28T01:58:38.489Z,12.10
2019-02-28T02:01:19.513Z,12.93
2019-02-28T02:04:00.159Z,16.30
2019-02-28T02:06:41.427Z,12.83
2019-02-28T02:09:11.039Z,12.83
2019-02-28T02:12:00.537Z,11.30
2019-02-28T02:14:48.945Z,11.07
2019-02-28T02:17:36.612Z,10.17
2019-02-28T02:20:26.293Z,12.47
2019-02-28T02:23:34.421Z,11.63
2019-02-28T02:26:22.751Z,14.00
2019-02-28T02:29:10.968Z,14.33
2019-02-28T02:54:17.847Z,16.40
2019-02-28T03:15:42.124Z,17.43
2019-02-28T03:18:11.390Z,14.60
2019-02-28T03:20:42.318Z,17.63
2019-02-28T03:23:14.754Z,17.33
2019-02-28T03:25:51.846Z,21.53
2019-02-28T03:28:23.079Z,16.77
2019-02-28T03:30:58.102Z,15.63
2019-02-28T03:33:33.675Z,17.47
2019-02-28T03:36:03.175Z,16.80
2019-02-28T03:38:32.339Z,19.70
2019-02-28T03:41:01.727Z,19.30
2019-02-28T03:43:31.518Z,18.90
2019-02-28T03:46:34.726Z,19.23
2019-02-28T03:51:46.753Z,20.80
2019-02-28T04:03:10.500Z,17.17
2019-02-28T04:05:43.405Z,18.07
2019-02-28T04:08:13.269Z,17.77
2019-02-28T04:10:42.460Z,16.73
2019-02-28T04:13:12.180Z,19.90
2019-02-28T04:18:53.345Z,24.10
2019-02-28T04:24:30.966Z,20.70
2019-02-28T04:27:16.764Z,19.33
2019-02-28T04:30:07.876Z,21.13
2019-02-28T04:33:12.533Z,20.10
2019-02-28T04:35:41.942Z,19.13
2019-02-28T04:38:10.864Z,21.53
2019-02-28T04:41:15.704Z,25.63
2019-02-28T04:44:03.874Z,30.23
2019-02-28T04:46:52.288Z,19.87
2019-02-28T04:49:40.510Z,24.70
2019-02-28T04:52:28.708Z,23.67
2019-02-28T05:07:41.063Z,26.80
2019-02-28T05:19:55.748Z,27.73
2019-02-28T05:22:44.443Z,27.07
2019-02-28T05:25:17.785Z,27.50
2019-02-28T05:33:42.091Z,31.70
2019-02-28T05:36:29.163Z,30.33
2019-02-28T05:39:17.334Z,28.03
2019-02-28T05:42:05.454Z,28.77
2019-02-28T05:44:53.623Z,29.33
2019-02-28T05:47:46.375Z,31.07
2019-02-28T05:50:15.570Z,30.60
2019-02-28T05:53:03.047Z,32.63
2019-02-28T05:55:52.254Z,30.93
2019-02-28T05:58:40.415Z,33.40
2019-02-28T06:01:28.520Z,34.17
2019-02-28T06:04:16.821Z,31.37
2019-02-28T06:07:04.903Z,33.10
2019-02-28T06:09:53.081Z,34.77
2019-02-28T06:12:43.825Z,34.77
2019-02-28T06:15:34.239Z,35.90
2019-02-28T06:18:21.643Z,40.00
2019-02-28T06:21:10.343Z,45.53
2019-02-28T06:23:59.876Z,34.43
2019-02-28T06:26:40.913Z,38.57
2019-02-28T06:29:21.891Z,39.03
2019-02-28T06:32:02.723Z,41.03
2019-02-28T06:34:43.907Z,41.90
2019-02-28T06:37:25.249Z,37.07
2019-02-28T06:40:04.915Z,46.37
2019-02-28T06:42:52.996Z,40.10
2019-02-28T06:45:41.335Z,41.30
2019-02-28T06:48:29.391Z,37.67
2019-02-28T06:51:10.024Z,39.70
2019-02-28T06:53:50.997Z,41.70
2019-02-28T06:56:31.762Z,45.90
2019-02-28T06:59:12.355Z,38.43
2019-02-28T07:01:56.617Z,43.73
2019-02-28T07:04:35.213Z,43.30
2019-02-28T07:07:16.111Z,50.33
2019-02-28T07:09:57.230Z,42.90
2019-02-28T07:12:38.111Z,47.23
2019-02-28T07:15:23.646Z,48.57
2019-02-28T07:18:01.393Z,46.10
2019-02-28T07:20:43.001Z,50.87
2019-02-28T07:23:23.555Z,43.53
2019-02-28T07:26:04.101Z,51.67
2019-02-28T07:28:45.038Z,49.63
2019-02-28T07:31:25.793Z,46.13
2019-02-28T07:34:06.443Z,50.40
2019-02-28T07:36:47.554Z,55.03
2019-02-28T07:39:28.462Z,48.27
2019-02-28T07:42:09.231Z,54.27
2019-02-28T07:44:49.956Z,53.47
2019-02-28T07:47:30.870Z,57.97
2019-02-28T07:50:12.169Z,51.10
2019-02-28T07:52:53.258Z,59.67
2019-02-28T07:55:34.546Z,51.97
2019-02-28T07:58:15.367Z,51.33
2019-02-28T08:00:56.055Z,56.40
2019-02-28T08:03:36.760Z,55.80
2019-02-28T08:06:17.179Z,65.23
2019-02-28T08:08:57.819Z,58.90
2019-02-28T08:11:38.210Z,57.67
2019-02-28T08:14:18.916Z,60.57
2019-02-28T08:17:00.012Z,61.13
2019-02-28T08:19:40.366Z,62.20
2019-02-28T08:22:24.197Z,63.47
2019-02-28T08:27:45.383Z,58.53
2019-02-28T08:30:26.493Z,60.80
2019-02-28T08:33:07.287Z,59.73
2019-02-28T09:00:13.577Z,65.53
2019-02-28T09:15:04.436Z,70.77
2019-02-28T09:17:45.513Z,72.30
2019-02-28T09:20:26.196Z,74.43
2019-02-28T09:23:07.336Z,70.13
2019-02-28T09:28:29.864Z,73.73
2019-02-28T09:31:10.354Z,70.03
2019-02-28T09:33:51.156Z,74.90
2019-02-28T09:36:31.952Z,78.73
2019-02-28T09:39:16.390Z,66.63
2019-02-28T09:41:56.173Z,73.00
2019-02-28T09:44:37.163Z,77.17
2019-02-28T09:47:18.178Z,69.70
2019-02-28T09:49:59.204Z,74.33
2019-02-28T09:52:41.656Z,69.73
2019-02-28T09:55:23.165Z,77.87
2019-02-28T09:57:54.808Z,67.87
2019-02-28T10:00:43.253Z,68.80
2019-02-28T10:03:31.955Z,77.87
2019-02-28T10:06:20.073Z,67.00
2019-02-28T10:09:08.778Z,73.73
2019-02-28T10:11:58.007Z,76.50
2019-02-28T10:14:46.235Z,74.93
2019-02-28T10:17:34.345Z,71.80
2019-02-28T10:20:27.347Z,70.20
2019-02-28T10:23:13.256Z,79.87
2019-02-28T10:26:01.537Z,66.10
2019-02-28T10:28:30.608Z,61.30
2019-02-28T10:30:59.581Z,66.30
2019-02-28T10:33:28.597Z,70.53
2019-02-28T10:35:57.569Z,65.90
2019-02-28T10:38:29.448Z,66.53
2019-02-28T10:40:57.226Z,68.13
2019-02-28T10:43:26.138Z,70.73
2019-02-28T10:46:16.961Z,68.20
2019-02-28T10:49:04.174Z,68.77
2019-02-28T10:51:33.134Z,69.40
2019-02-28T10:54:02.096Z,70.80
2019-02-28T10:56:32.072Z,62.50
2019-02-28T10:59:01.919Z,61.53
2019-02-28T11:01:30.955Z,68.20
2019-02-28T11:04:00.290Z,61.00
2019-02-28T11:06:48.703Z,68.23
2019-02-28T11:09:58.799Z,62.07
2019-02-28T11:12:47.793Z,67.50
2019-02-28T11:15:35.953Z,62.90
2019-02-28T11:18:24.054Z,59.17
2019-02-28T11:24:00.292Z,61.40
2019-02-28T11:29:24.071Z,61.10
2019-02-28T11:32:04.766Z,64.40
2019-02-28T11:34:45.838Z,63.27
2019-02-28T11:37:16.343Z,56.97
2019-02-28T11:39:45.450Z,65.70
2019-02-28T11:42:14.411Z,60.70
2019-02-28T11:45:02.947Z,61.43
2019-02-28T11:47:51.901Z,64.70
2019-02-28T11:50:20.923Z,60.87
2019-02-28T11:52:49.774Z,66.30
2019-02-28T11:55:38.244Z,62.70
2019-02-28T11:58:07.157Z,59.87
2019-02-28T12:00:55.306Z,75.13
2019-02-28T12:06:18.983Z,58.57
2019-02-28T12:08:59.713Z,61.27
2019-02-28T12:14:53.535Z,62.07
2019-02-28T12:17:34.203Z,65.00
2019-02-28T12:20:15.524Z,53.60
2019-02-28T12:22:56.181Z,57.60
2019-02-28T12:25:39.618Z,74.00
2019-02-28T12:28:20.382Z,62.33
2019-02-28T12:31:01.652Z,64.43
2019-02-28T12:33:43.107Z,59.20
2019-02-28T12:36:24.232Z,60.20
2019-02-28T12:39:05.508Z,65.07
2019-02-28T12:41:46.347Z,64.53
2019-02-28T12:47:09.231Z,57.63
2019-02-28T12:49:50.184Z,56.27
2019-02-28T12:52:31.207Z,53.60
2019-02-28T12:55:12.027Z,61.27
2019-02-28T12:57:54.853Z,53.33
2019-02-28T13:00:36.132Z,54.00
2019-02-28T13:03:05.248Z,60.80
2019-02-28T13:05:34.220Z,54.40
2019-02-28T13:08:05.823Z,59.80
2019-02-28T13:10:34.098Z,62.13
2019-02-28T13:13:06.904Z,66.10
2019-02-28T13:15:33.684Z,62.23
2019-02-28T13:18:07.311Z,58.10
2019-02-28T13:20:34.725Z,58.37
2019-02-28T13:23:04.571Z,57.30
2019-02-28T13:25:33.464Z,65.90
2019-02-28T13:28:02.460Z,60.83
2019-02-28T13:30:31.486Z,57.73
2019-02-28T13:33:00.369Z,62.10
2019-02-28T13:35:30.587Z,60.63
2019-02-28T13:37:59.806Z,64.37
2019-02-28T13:40:28.852Z,62.00
2019-02-28T13:42:57.839Z,71.53
2019-02-28T13:45:26.801Z,66.47
2019-02-28T13:47:55.824Z,70.80
2019-02-28T13:50:27.105Z,77.47
2019-02-28T13:52:56.752Z,67.97
2019-02-28T13:55:26.122Z,74.30
2019-02-28T13:57:55.093Z,59.50
2019-02-28T14:00:25.979Z,69.93
2019-02-28T14:02:56.765Z,65.50
2019-02-28T14:05:26.200Z,66.33
2019-02-28T14:07:56.804Z,60.43
2019-02-28T14:10:29.767Z,62.80
2019-02-28T14:12:57.988Z,65.20
2019-02-28T14:15:27.837Z,73.83
2019-02-28T14:17:56.389Z,63.63
2019-02-28T14:20:27.630Z,68.57
2019-02-28T14:22:56.061Z,71.93
2019-02-28T14:25:25.670Z,73.37
2019-02-28T14:27:56.873Z,71.33
2019-02-28T14:30:25.793Z,63.07
2019-02-28T14:32:55.135Z,70.20
2019-02-28T14:35:24.428Z,62.93
2019-02-28T14:37:55.798Z,77.80
2019-02-28T14:40:24.318Z,71.90
2019-02-28T14:42:53.284Z,66.40
2019-02-28T14:45:22.266Z,72.17
2019-02-28T14:47:56.939Z,68.77
2019-02-28T14:50:22.709Z,70.57
2019-02-28T14:52:52.779Z,67.83
2019-02-28T14:55:22.024Z,75.27
2019-02-28T14:57:51.027Z,67.30
2019-02-28T15:00:20.589Z,60.60
2019-02-28T15:02:50.709Z,68.13
2019-02-28T15:05:20.490Z,65.67
2019-02-28T15:07:49.549Z,63.30
2019-02-28T15:10:18.400Z,63.70
2019-02-28T15:12:46.817Z,69.30
2019-02-28T15:15:17.961Z,66.27
2019-02-28T15:17:46.333Z,68.70
2019-02-28T15:20:14.904Z,69.73
2019-02-28T15:22:43.333Z,66.97
2019-02-28T15:25:15.245Z,60.90
2019-02-28T15:27:42.911Z,65.10
2019-02-28T15:30:15.423Z,76.27
2019-02-28T15:32:43.899Z,68.43
2019-02-28T15:35:15.212Z,74.30
2019-02-28T15:37:43.481Z,74.30
2019-02-28T15:40:13.570Z,60.70
2019-02-28T15:42:43.007Z,67.73
2019-02-28T15:45:12.167Z,81.60
2019-02-28T15:47:40.631Z,74.77
2019-02-28T15:50:10.051Z,64.73
2019-02-28T15:52:39.378Z,70.43
2019-02-28T15:55:09.349Z,67.23
2019-02-28T15:57:38.706Z,76.03
2019-02-28T16:00:10.256Z,81.23
2019-02-28T16:02:42.147Z,81.30
2019-02-28T16:05:10.336Z,74.40
2019-02-28T16:07:39.266Z,74.60
2019-02-28T16:10:09.676Z,76.33
2019-02-28T16:12:38.768Z,75.70
2019-02-28T16:15:11.935Z,83.70
2019-02-28T16:17:40.816Z,76.80
2019-02-28T16:20:09.834Z,71.70
2019-02-28T16:22:38.802Z,83.10
2019-02-28T16:25:11.518Z,85.57
2019-02-28T16:27:42.065Z,91.40
2019-02-28T16:30:12.333Z,82.93
2019-02-28T16:32:41.307Z,83.23
2019-02-28T16:35:10.419Z,90.80
2019-02-28T16:37:39.464Z,84.10
2019-02-28T16:40:10.830Z,91.93
2019-02-28T16:42:40.001Z,80.67
2019-02-28T16:45:13.516Z,85.30
2019-02-28T16:47:42.604Z,100.07
2019-02-28T16:50:11.666Z,90.90
2019-02-28T16:52:40.745Z,82.17
2019-02-28T16:55:09.981Z,161.63
2019-02-28T16:57:39.018Z,92.13
2019-02-28T17:00:08.652Z,94.53
2019-02-28T17:02:37.746Z,94.37
2019-02-28T17:05:07.402Z,88.90
2019-02-28T17:07:36.390Z,91.03
2019-02-28T17:10:09.034Z,94.77
2019-02-28T17:12:54.474Z,100.33
2019-02-28T17:15:30.668Z,85.80
2019-02-28T17:18:06.838Z,106.60
2019-02-28T17:20:37.638Z,118.07
2019-02-28T17:23:06.504Z,112.27
2019-02-28T17:25:35.375Z,108.70
2019-02-28T17:28:12.297Z,107.20
2019-02-28T17:30:48.712Z,96.00
2019-02-28T17:33:17.656Z,108.90
2019-02-28T17:35:46.731Z,94.23
2019-02-28T17:38:15.780Z,104.67
2019-02-28T17:40:44.854Z,108.70
2019-02-28T17:43:14.183Z,104.37
2019-02-28T17:45:43.196Z,108.00
2019-02-28T17:48:56.835Z,96.40
2019-02-28T17:51:55.502Z,92.23
2019-02-28T17:54:37.828Z,94.00
2019-02-28T17:57:31.147Z,88.17
2019-02-28T18:00:23.500Z,96.27
2019-02-28T18:03:26.213Z,92.30
2019-02-28T18:06:35.261Z,92.13
2019-02-28T18:09:44.980Z,90.60
2019-02-28T18:13:07.506Z,98.57
2019-02-28T18:16:01.196Z,88.37
2019-02-28T18:19:18.046Z,94.87
2019-02-28T18:22:29.636Z,99.60
2019-02-28T18:25:26.105Z,112.23
2019-02-28T18:28:22.587Z,102.60
2019-02-28T18:31:19.288Z,103.70
2019-02-28T18:33:52.357Z,93.20
2019-02-28T18:36:23.230Z,86.10
2019-02-28T18:38:52.224Z,91.10
2019-02-28T18:41:21.268Z,94.60
2019-02-28T18:43:50.330Z,92.60
2019-02-28T18:46:24.042Z,104.90
2019-02-28T18:48:54.395Z,96.57
2019-02-28T18:51:23.715Z,100.40
2019-02-28T18:53:52.683Z,103.77
2019-02-28T18:56:21.604Z,108.80
2019-02-28T18:58:50.687Z,94.53
2019-02-28T19:01:19.571Z,106.60
2019-02-28T19:03:48.522Z,99.10
2019-02-28T19:06:17.551Z,119.37
2019-02-28T19:08:46.461Z,103.70
2019-02-28T19:11:15.464Z,124.67
2019-02-28T19:13:44.776Z,109.63
2019-02-28T19:16:15.192Z,109.47
2019-02-28T19:18:44.467Z,104.50
2019-02-28T19:21:13.468Z,112.57
2019-02-28T19:23:42.344Z,109.10
2019-02-28T19:26:11.221Z,101.00
2019-02-28T19:28:40.285Z,107.73
2019-02-28T19:31:09.249Z,115.40
2019-02-28T19:33:38.237Z,105.10
2019-02-28T19:36:07.376Z,106.07
2019-02-28T19:38:36.571Z,110.57
2019-02-28T19:41:05.641Z,118.27
2019-02-28T19:43:34.704Z,114.23
2019-02-28T19:46:05.163Z,115.03
2019-02-28T19:48:36.975Z,110.80
2019-02-28T19:51:06.591Z,126.77
2019-02-28T19:53:35.785Z,107.73
2019-02-28T19:56:05.255Z,125.00
2019-02-28T19:58:34.349Z,125.23
2019-02-28T20:01:03.870Z,121.77
2019-02-28T20:03:33.215Z,131.40
2019-02-28T20:06:02.501Z,127.87
2019-02-28T20:08:31.731Z,116.73
2019-02-28T20:11:01.409Z,127.43
2019-02-28T20:13:39.657Z,126.83
2019-02-28T20:16:08.836Z,128.07
2019-02-28T20:18:38.313Z,136.07
2019-02-28T20:21:07.939Z,130.90
2019-02-28T20:23:37.139Z,119.13
2019-02-28T20:26:06.566Z,124.17
2019-02-28T20:28:35.890Z,138.10
2019-02-28T20:31:05.980Z,131.23
2019-02-28T20:33:35.111Z,122.90
2019-02-28T20:36:04.603Z,131.73
2019-02-28T20:38:33.726Z,124.03
2019-02-28T20:41:04.037Z,130.00
2019-02-28T20:43:33.286Z,125.93
2019-02-28T20:46:02.781Z,131.13
2019-02-28T20:48:31.931Z,123.33
2019-02-28T20:51:01.445Z,119.83
2019-02-28T20:53:33.435Z,123.83
2019-02-28T20:56:02.941Z,122.80
2019-02-28T20:58:32.152Z,115.90
2019-02-28T21:01:01.413Z,123.37
2019-02-28T21:03:30.639Z,120.00
2019-02-28T21:05:59.836Z,119.80
2019-02-28T21:08:28.901Z,128.63
2019-02-28T21:10:58.411Z,120.20
2019-02-28T21:13:30.367Z,116.53
2019-02-28T21:15:59.357Z,102.37
2019-02-28T21:18:28.441Z,107.23
2019-02-28T21:20:57.327Z,105.50
2019-02-28T21:23:26.389Z,95.80
2019-02-28T21:25:57.207Z,111.60
2019-02-28T21:28:26.059Z,108.53
2019-02-28T21:30:55.121Z,97.27
2019-02-28T21:33:24.302Z,92.77
2019-02-28T21:35:53.343Z,92.43
2019-02-28T21:38:22.593Z,90.63
2019-02-28T21:40:51.926Z,92.57
2019-02-28T21:43:21.097Z,87.87
2019-02-28T21:45:50.174Z,91.80
2019-02-28T21:48:19.384Z,88.93
2019-02-28T21:50:48.521Z,80.97
2019-02-28T21:53:17.786Z,82.23
2019-02-28T21:55:46.895Z,81.00
2019-02-28T21:58:15.979Z,67.93
2019-02-28T22:00:45.306Z,76.13
2019-02-28T22:03:14.462Z,72.67
2019-02-28T22:05:43.678Z,74.43
2019-02-28T22:08:12.995Z,77.53
2019-02-28T22:10:42.039Z,68.83
2019-02-28T22:13:11.202Z,68.53
2019-02-28T22:15:40.048Z,61.13
2019-02-28T22:18:09.087Z,61.10
2019-02-28T22:20:37.944Z,60.77
2019-02-28T22:23:07.035Z,61.00
2019-02-28T22:25:36.025Z,63.90
2019-02-28T22:28:05.336Z,58.97
2019-02-28T22:30:56.594Z,63.83
2019-02-28T22:33:34.187Z,57.10
2019-02-28T22:36:03.452Z,58.57
2019-02-28T22:38:32.529Z,61.10
2019-02-28T22:41:01.727Z,67.60
2019-02-28T22:43:30.748Z,57.10
2019-02-28T22:45:59.592Z,55.80
2019-02-28T22:48:28.560Z,54.70
2019-02-28T22:50:58.214Z,56.37
2019-02-28T22:53:27.724Z,56.60
2019-02-28T22:55:56.562Z,58.60
2019-02-28T22:58:25.690Z,61.93
2019-02-28T23:01:03.813Z,60.20
2019-02-28T23:03:33.602Z,61.43
2019-02-28T23:06:02.694Z,60.63
2019-02-28T23:08:32.187Z,58.70
2019-02-28T23:11:01.264Z,61.00
2019-02-28T23:13:30.354Z,75.90
2019-02-28T23:15:59.614Z,54.00
2019-02-28T23:18:28.488Z,57.57
2019-02-28T23:20:57.499Z,58.30
2019-02-28T23:23:26.600Z,68.07
2019-02-28T23:26:06.158Z,61.10
2019-02-28T23:28:34.964Z,61.03
2019-02-28T23:31:34.542Z,57.60
2019-02-28T23:34:08.184Z,56.43
2019-02-28T23:36:37.154Z,64.57
2019-02-28T23:39:07.885Z,71.30
2019-02-28T23:41:36.798Z,62.63
2019-02-28T23:44:05.912Z,57.87
2019-02-28T23:46:34.862Z,52.90
2019-02-28T23:49:03.985Z,69.30
2019-02-28T23:51:33.087Z,63.57
2019-02-28T23:54:02.150Z,60.10
2019-02-28T23:56:31.133Z,59.13
2019-02-28T23:59:00.132Z,63.47
